Time;durP1;ratioP1;P1;durP2;ratioP2;P2;SDS_P1;SDS_P2;PMS_P1;PMS_P2;Temp;Humidity;BMP_temperature;BMP_pressure;BME280_temperature;BME280_humidity;BME280_pressure;Samples;Min_cycle;Max_cycle;Signal;HPM_P1;HPM_P2
2022/06/13 00:00:19;;;;;;;;;;;25.50;52.40;;;;;;5040068;28;20809;-68
2022/06/13 00:02:45;;;;;;;;;;;25.50;52.70;;;;;;5037727;28;19956;-68
2022/06/13 00:05:12;;;;;;;;;;;25.50;52.70;;;;;;5041194;28;19940;-70
2022/06/13 00:07:39;;;;;;;;;;;25.40;52.30;;;;;;5041068;28;20484;-67
2022/06/13 00:10:08;;;;;;;;;;;25.40;52.20;;;;;;5039580;28;20393;-67
2022/06/13 00:12:35;;;;;;;;;;;25.40;52.30;;;;;;5041013;28;20421;-69
2022/06/13 00:15:01;;;;;;;;;;;25.30;51.90;;;;;;5040796;28;20409;-70
2022/06/13 00:17:28;;;;;;;;;;;25.30;52.00;;;;;;5039164;28;19929;-68
2022/06/13 00:19:55;;;;;;;;;;;25.30;51.60;;;;;;5038284;28;19933;-67
2022/06/13 00:22:21;;;;;;;;;;;25.20;51.50;;;;;;5040498;28;19932;-69
2022/06/13 00:24:48;;;;;;;;;;;25.20;51.60;;;;;;5040985;28;20288;-68
2022/06/13 00:27:16;;;;;;;;;;;25.20;51.40;;;;;;5040063;28;19928;-67
2022/06/13 00:29:44;;;;;;;;;;;25.10;51.50;;;;;;5039975;28;19929;-67
2022/06/13 00:32:11;;;;;;;;;;;25.10;51.30;;;;;;5040039;28;19925;-67
2022/06/13 00:34:37;;;;;;;;;;;25.00;51.40;;;;;;5039934;28;19928;-68
2022/06/13 00:37:04;;;;;;;;;;;25.00;50.50;;;;;;5039404;28;19928;-67
2022/06/13 00:39:30;;;;;;;;;;;25.00;50.70;;;;;;5040894;28;19935;-66
2022/06/13 00:41:57;;;;;;;;;;;25.00;51.00;;;;;;5037026;28;19937;-69
2022/06/13 00:44:27;;;;;;;;;;;24.90;50.60;;;;;;5040418;28;19932;-71
2022/06/13 00:46:54;;;;;;;;;;;24.90;51.20;;;;;;5040168;28;19990;-71
2022/06/13 00:49:22;;;;;;;;;;;24.80;51.10;;;;;;5038035;28;20456;-69
2022/06/13 00:51:50;;;;;;;;;;;24.80;51.10;;;;;;5043108;28;19968;-68
2022/06/13 00:54:18;;;;;;;;;;;24.70;51.10;;;;;;5044676;28;19944;-70
2022/06/13 00:56:47;;;;;;;;;;;24.70;50.20;;;;;;5041335;28;20388;-68
2022/06/13 00:59:15;;;;;;;;;;;24.70;49.70;;;;;;5043410;28;19980;-67
2022/06/13 01:01:43;;;;;;;;;;;24.60;49.50;;;;;;5043339;28;19935;-69
2022/06/13 01:04:10;;;;;;;;;;;24.60;49.90;;;;;;5043954;28;19929;-70
2022/06/13 01:06:38;;;;;;;;;;;24.60;49.50;;;;;;5045411;28;19928;-68
2022/06/13 01:09:07;;;;;;;;;;;24.50;49.30;;;;;;5043996;28;19929;-67
2022/06/13 01:11:32;;;;;;;;;;;24.50;49.70;;;;;;5042855;28;19933;-68
2022/06/13 01:14:15;;;;;;;;;;;24.50;49.40;;;;;;5044972;28;20308;-67
2022/06/13 01:16:47;;;;;;;;;;;24.40;49.40;;;;;;5042947;28;19932;-69
2022/06/13 01:19:34;;;;;;;;;;;24.40;49.30;;;;;;5041189;28;20519;-67
2022/06/13 01:22:11;;;;;;;;;;;24.40;49.30;;;;;;5016622;28;19928;-68
2022/06/13 01:24:52;;;;;;;;;;;24.30;49.30;;;;;;5042949;28;20344;-70
2022/06/13 01:27:38;;;;;;;;;;;24.30;49.20;;;;;;5042948;28;19936;-66
2022/06/13 01:30:26;;;;;;;;;;;24.30;49.50;;;;;;5038026;28;19951;-71
2022/06/13 01:32:56;;;;;;;;;;;24.20;49.60;;;;;;5015332;28;20676;-68
2022/06/13 01:35:38;;;;;;;;;;;24.20;49.80;;;;;;5043775;28;19933;-67
2022/06/13 01:38:09;;;;;;;;;;;24.20;49.80;;;;;;5039494;28;19983;-71
2022/06/13 01:40:43;;;;;;;;;;;24.10;49.40;;;;;;5043237;28;19932;-68
2022/06/13 01:43:12;;;;;;;;;;;24.10;49.40;;;;;;5039879;28;19933;-68
2022/06/13 01:45:41;;;;;;;;;;;24.00;49.40;;;;;;5038465;28;19933;-68
2022/06/13 01:48:13;;;;;;;;;;;24.00;49.40;;;;;;5037813;28;19933;-67
2022/06/13 01:50:43;;;;;;;;;;;24.00;49.40;;;;;;5042167;28;19937;-67
2022/06/13 01:53:16;;;;;;;;;;;24.00;49.40;;;;;;5044704;28;19940;-67
2022/06/13 01:55:45;;;;;;;;;;;23.90;49.30;;;;;;5041212;28;19933;-68
2022/06/13 01:58:16;;;;;;;;;;;23.90;49.20;;;;;;5041675;28;19928;-69
2022/06/13 02:00:47;;;;;;;;;;;23.90;49.30;;;;;;5041519;28;19982;-68
2022/06/13 02:03:17;;;;;;;;;;;23.80;49.40;;;;;;5039040;28;19929;-66
2022/06/13 02:05:45;;;;;;;;;;;23.80;49.60;;;;;;5044247;28;19932;-66
2022/06/13 02:08:13;;;;;;;;;;;23.80;49.90;;;;;;5042440;28;20658;-69
2022/06/13 02:10:42;;;;;;;;;;;23.70;49.50;;;;;;5043355;28;19936;-69
2022/06/13 02:13:11;;;;;;;;;;;23.70;50.00;;;;;;5038046;28;19928;-68
2022/06/13 02:15:40;;;;;;;;;;;23.70;50.00;;;;;;5038761;28;19932;-69
2022/06/13 02:18:09;;;;;;;;;;;23.60;49.80;;;;;;5039807;28;19929;-69
2022/06/13 02:20:38;;;;;;;;;;;23.60;49.60;;;;;;5040858;28;19929;-67
2022/06/13 02:23:06;;;;;;;;;;;23.50;49.70;;;;;;5040986;28;19937;-67
2022/06/13 02:25:36;;;;;;;;;;;23.50;49.70;;;;;;5043292;28;19987;-68
2022/06/13 02:28:06;;;;;;;;;;;23.50;50.00;;;;;;5039266;28;20356;-67
2022/06/13 02:30:35;;;;;;;;;;;23.50;50.00;;;;;;5039229;28;19936;-70
2022/06/13 02:33:06;;;;;;;;;;;23.40;50.10;;;;;;5041334;28;19929;-68
2022/06/13 02:35:35;;;;;;;;;;;23.40;50.00;;;;;;5042251;28;19940;-68
2022/06/13 02:38:07;;;;;;;;;;;23.30;50.00;;;;;;5041088;28;20506;-70
2022/06/13 02:40:35;;;;;;;;;;;23.30;50.00;;;;;;5038793;28;20487;-68
2022/06/13 02:43:04;;;;;;;;;;;23.30;50.10;;;;;;5042271;28;19932;-70
2022/06/13 02:45:32;;;;;;;;;;;23.20;50.20;;;;;;5040545;28;19928;-69
2022/06/13 02:48:02;;;;;;;;;;;23.20;50.20;;;;;;5036999;28;19944;-68
2022/06/13 02:50:31;;;;;;;;;;;23.20;50.20;;;;;;5039067;28;19936;-67
2022/06/13 02:53:03;;;;;;;;;;;23.10;50.20;;;;;;5041779;28;19926;-69
2022/06/13 02:55:35;;;;;;;;;;;23.10;50.50;;;;;;5041961;28;19928;-68
2022/06/13 02:58:07;;;;;;;;;;;23.10;50.70;;;;;;5041072;28;19928;-70
2022/06/13 03:00:49;;;;;;;;;;;23.00;50.70;;;;;;5039283;28;20420;-67
2022/06/13 03:03:17;;;;;;;;;;;23.00;50.90;;;;;;5036459;28;19983;-68
2022/06/13 03:05:47;;;;;;;;;;;23.00;51.10;;;;;;5041859;28;19933;-67
2022/06/13 03:08:31;;;;;;;;;;;22.90;51.00;;;;;;5039442;28;19939;-68
2022/06/13 03:11:02;;;;;;;;;;;22.90;51.40;;;;;;5042835;28;19929;-69
2022/06/13 03:13:32;;;;;;;;;;;22.80;51.40;;;;;;5042054;28;19928;-70
2022/06/13 03:16:02;;;;;;;;;;;22.80;51.40;;;;;;5042612;28;19929;-68
2022/06/13 03:18:31;;;;;;;;;;;22.70;51.40;;;;;;5037554;28;20015;-67
2022/06/13 03:21:01;;;;;;;;;;;22.70;51.60;;;;;;5038744;28;20644;-68
2022/06/13 03:23:31;;;;;;;;;;;22.60;51.50;;;;;;5042156;28;19932;-68
2022/06/13 03:26:02;;;;;;;;;;;22.60;51.60;;;;;;5040893;28;19929;-69
2022/06/13 03:28:31;;;;;;;;;;;22.60;51.70;;;;;;5040942;28;20308;-70
2022/06/13 03:30:59;;;;;;;;;;;22.60;51.80;;;;;;5037436;28;19929;-68
2022/06/13 03:33:42;;;;;;;;;;;22.50;51.90;;;;;;5041134;28;19929;-70
2022/06/13 03:36:10;;;;;;;;;;;22.50;51.80;;;;;;5038333;28;19936;-66
2022/06/13 03:38:39;;;;;;;;;;;22.40;51.90;;;;;;5037265;28;19929;-66
2022/06/13 03:41:07;;;;;;;;;;;22.40;52.10;;;;;;5040389;28;19963;-67
2022/06/13 03:43:35;;;;;;;;;;;22.40;52.10;;;;;;5041502;28;19932;-65
2022/06/13 03:46:04;;;;;;;;;;;22.30;52.10;;;;;;5039049;28;19929;-69
2022/06/13 03:48:33;;;;;;;;;;;22.30;52.40;;;;;;5034930;28;19928;-68
2022/06/13 03:51:01;;;;;;;;;;;22.20;52.40;;;;;;5043724;28;19929;-68
2022/06/13 03:53:30;;;;;;;;;;;22.20;52.40;;;;;;5041296;28;19938;-70
2022/06/13 03:56:00;;;;;;;;;;;22.20;52.70;;;;;;5041129;28;19963;-69
2022/06/13 03:58:30;;;;;;;;;;;22.10;52.80;;;;;;5041312;28;20045;-70
2022/06/13 04:01:01;;;;;;;;;;;22.10;53.00;;;;;;5040428;28;19928;-70
2022/06/13 04:03:28;;;;;;;;;;;22.00;53.10;;;;;;5036043;28;19929;-68
2022/06/13 04:05:56;;;;;;;;;;;22.00;52.90;;;;;;5041861;28;20057;-70
2022/06/13 04:08:22;;;;;;;;;;;22.00;53.10;;;;;;5040855;28;20458;-67
2022/06/13 04:10:55;;;;;;;;;;;22.00;53.10;;;;;;5041893;28;19959;-68
2022/06/13 04:13:27;;;;;;;;;;;21.90;53.10;;;;;;5037905;28;19933;-68
2022/06/13 04:16:02;;;;;;;;;;;21.90;53.20;;;;;;5038857;28;19929;-70
2022/06/13 04:18:38;;;;;;;;;;;21.90;53.50;;;;;;5038422;28;19928;-67
2022/06/13 04:21:10;;;;;;;;;;;21.80;53.40;;;;;;5037053;28;19955;-67
2022/06/13 04:23:41;;;;;;;;;;;21.80;53.50;;;;;;5040582;28;19932;-65
2022/06/13 04:26:10;;;;;;;;;;;21.70;53.40;;;;;;5041301;28;19932;-67
2022/06/13 04:28:41;;;;;;;;;;;21.70;53.50;;;;;;5043625;28;19928;-66
2022/06/13 04:31:10;;;;;;;;;;;21.70;53.40;;;;;;5042141;28;19940;-67
2022/06/13 04:33:39;;;;;;;;;;;21.70;53.60;;;;;;5044896;28;20014;-66
2022/06/13 04:36:07;;;;;;;;;;;21.60;53.60;;;;;;5044371;28;19937;-67
2022/06/13 04:38:34;;;;;;;;;;;21.60;53.60;;;;;;5043711;28;19928;-68
2022/06/13 04:41:02;;;;;;;;;;;21.50;53.80;;;;;;5044934;28;21574;-67
2022/06/13 04:43:33;;;;;;;;;;;21.50;53.90;;;;;;5042427;28;20640;-68
2022/06/13 04:46:02;;;;;;;;;;;21.50;53.90;;;;;;5044551;28;19929;-66
2022/06/13 04:48:30;;;;;;;;;;;21.50;54.00;;;;;;5042365;28;19929;-70
2022/06/13 04:50:59;;;;;;;;;;;21.40;54.00;;;;;;5044875;28;19929;-69
2022/06/13 04:53:26;;;;;;;;;;;21.40;54.30;;;;;;5045356;28;19929;-69
2022/06/13 04:55:54;;;;;;;;;;;21.40;54.10;;;;;;5044873;28;19994;-70
2022/06/13 04:58:23;;;;;;;;;;;21.30;54.10;;;;;;5043741;28;19936;-66
2022/06/13 05:00:51;;;;;;;;;;;21.30;54.20;;;;;;5041252;28;19928;-67
2022/06/13 05:03:20;;;;;;;;;;;21.30;54.20;;;;;;5039610;28;19929;-68
2022/06/13 05:05:51;;;;;;;;;;;21.30;54.40;;;;;;5042313;28;20706;-67
2022/06/13 05:08:22;;;;;;;;;;;21.20;54.40;;;;;;5043151;28;19979;-68
2022/06/13 05:10:51;;;;;;;;;;;21.20;54.50;;;;;;5043591;28;20606;-68
2022/06/13 05:13:18;;;;;;;;;;;21.20;54.40;;;;;;5043882;28;19929;-68
2022/06/13 05:15:48;;;;;;;;;;;21.20;54.50;;;;;;5044098;28;19933;-68
2022/06/13 05:18:35;;;;;;;;;;;21.10;54.50;;;;;;5041759;28;19925;-66
2022/06/13 05:21:09;;;;;;;;;;;21.10;54.50;;;;;;5033295;28;20686;-67
2022/06/13 05:23:53;;;;;;;;;;;21.10;54.40;;;;;;5043898;28;20396;-67
2022/06/13 05:26:27;;;;;;;;;;;21.10;54.50;;;;;;5029090;28;19929;-68
2022/06/13 05:28:53;;;;;;;;;;;21.10;54.60;;;;;;5044115;28;20008;-70
2022/06/13 05:31:20;;;;;;;;;;;21.10;54.70;;;;;;5041064;28;19929;-69
2022/06/13 05:33:49;;;;;;;;;;;21.10;54.70;;;;;;5041089;28;19928;-69
2022/06/13 05:36:17;;;;;;;;;;;21.10;54.50;;;;;;5037658;28;20394;-68
2022/06/13 05:38:46;;;;;;;;;;;21.00;54.70;;;;;;5042631;28;19941;-68
2022/06/13 05:41:13;;;;;;;;;;;21.00;54.60;;;;;;5042840;28;20408;-68
2022/06/13 05:43:39;;;;;;;;;;;21.00;54.50;;;;;;5043853;28;19928;-68
2022/06/13 05:46:07;;;;;;;;;;;21.00;54.50;;;;;;5042211;28;19936;-67
2022/06/13 05:48:33;;;;;;;;;;;21.00;54.60;;;;;;5037222;28;19935;-69
2022/06/13 05:51:00;;;;;;;;;;;21.00;54.50;;;;;;5043778;28;20602;-68
2022/06/13 05:53:28;;;;;;;;;;;21.00;54.50;;;;;;5044338;28;19933;-70
2022/06/13 05:55:56;;;;;;;;;;;21.00;54.50;;;;;;5042331;28;20162;-69
2022/06/13 05:58:23;;;;;;;;;;;21.00;54.40;;;;;;5040034;28;19971;-67
2022/06/13 06:00:52;;;;;;;;;;;21.00;54.40;;;;;;5042990;28;20535;-67
2022/06/13 06:03:18;;;;;;;;;;;20.90;54.40;;;;;;5039577;28;19992;-66
2022/06/13 06:05:45;;;;;;;;;;;21.00;54.40;;;;;;5044357;28;20333;-68
2022/06/13 06:08:16;;;;;;;;;;;21.00;54.20;;;;;;5042689;28;19983;-69
2022/06/13 06:10:44;;;;;;;;;;;21.00;54.10;;;;;;5042417;28;19935;-68
2022/06/13 06:13:12;;;;;;;;;;;21.00;54.20;;;;;;5041859;28;19932;-68
2022/06/13 06:15:39;;;;;;;;;;;21.00;54.10;;;;;;5038839;28;20408;-68
2022/06/13 06:18:05;;;;;;;;;;;21.00;53.90;;;;;;5041412;28;19932;-67
2022/06/13 06:20:32;;;;;;;;;;;21.00;53.90;;;;;;5043306;28;19929;-67
2022/06/13 06:22:59;;;;;;;;;;;21.00;53.90;;;;;;5042177;28;19932;-67
2022/06/13 06:25:25;;;;;;;;;;;21.00;54.00;;;;;;5044800;28;19987;-70
2022/06/13 06:27:53;;;;;;;;;;;21.00;53.90;;;;;;5041765;28;19935;-68
2022/06/13 06:30:20;;;;;;;;;;;21.00;53.80;;;;;;5040257;28;20307;-68
2022/06/13 06:32:47;;;;;;;;;;;21.00;53.60;;;;;;5042044;28;19975;-68
2022/06/13 06:35:14;;;;;;;;;;;21.00;53.70;;;;;;5035498;28;19972;-67
2022/06/13 06:37:41;;;;;;;;;;;21.00;53.70;;;;;;5035852;28;20639;-68
2022/06/13 06:40:08;;;;;;;;;;;21.10;53.80;;;;;;5043024;28;20317;-71
2022/06/13 06:42:35;;;;;;;;;;;21.00;53.80;;;;;;5043657;28;19928;-68
2022/06/13 06:45:03;;;;;;;;;;;21.00;53.60;;;;;;5042342;28;19932;-69
2022/06/13 06:47:30;;;;;;;;;;;21.10;53.70;;;;;;5039713;28;20415;-77
2022/06/13 06:49:56;;;;;;;;;;;21.10;53.50;;;;;;5041391;28;19932;-76
2022/06/13 06:52:23;;;;;;;;;;;21.10;53.50;;;;;;5042829;28;19929;-75
2022/06/13 07:00:21;;;;;;;;;;;21.10;53.20;;;;;;5041195;28;19994;-76
2022/06/13 07:02:48;;;;;;;;;;;21.10;53.10;;;;;;5040148;28;19933;-74
2022/06/13 07:05:14;;;;;;;;;;;21.10;53.20;;;;;;5042060;28;19982;-75
2022/06/13 07:07:41;;;;;;;;;;;21.10;53.10;;;;;;5041312;28;19928;-75
2022/06/13 07:10:08;;;;;;;;;;;21.10;52.90;;;;;;5042253;28;19940;-74
2022/06/13 07:12:35;;;;;;;;;;;21.10;52.80;;;;;;5040919;28;19932;-75
2022/06/13 07:15:01;;;;;;;;;;;21.10;52.70;;;;;;5041979;28;20378;-73
2022/06/13 07:17:29;;;;;;;;;;;21.10;52.60;;;;;;5039945;28;19932;-74
2022/06/13 07:19:56;;;;;;;;;;;21.10;52.50;;;;;;5041549;28;19928;-73
2022/06/13 07:22:23;;;;;;;;;;;21.10;52.40;;;;;;5041601;28;19932;-74
2022/06/13 07:24:50;;;;;;;;;;;21.20;52.30;;;;;;5039203;28;19929;-74
2022/06/13 07:27:16;;;;;;;;;;;21.20;52.00;;;;;;5043308;28;19936;-73
2022/06/13 07:29:43;;;;;;;;;;;21.10;51.80;;;;;;5043954;28;19936;-75
2022/06/13 07:32:12;;;;;;;;;;;21.10;51.60;;;;;;5041843;28;19924;-72
2022/06/13 07:34:41;;;;;;;;;;;21.20;51.80;;;;;;5041771;28;19944;-73
2022/06/13 07:37:09;;;;;;;;;;;21.10;51.60;;;;;;5035446;28;19933;-73
2022/06/13 07:39:36;;;;;;;;;;;21.20;51.60;;;;;;5037699;28;19940;-72
2022/06/13 07:42:04;;;;;;;;;;;21.20;51.60;;;;;;5040243;28;20023;-73
2022/06/13 07:44:32;;;;;;;;;;;21.20;51.70;;;;;;5040878;28;19940;-73
2022/06/13 07:46:59;;;;;;;;;;;21.20;51.70;;;;;;5033745;28;19936;-74
2022/06/13 07:49:26;;;;;;;;;;;21.20;51.80;;;;;;5035808;28;19937;-76
2022/06/13 07:51:54;;;;;;;;;;;21.20;51.50;;;;;;5040803;28;19929;-73
2022/06/13 07:54:21;;;;;;;;;;;21.20;51.30;;;;;;5041514;28;20024;-74
2022/06/13 07:56:48;;;;;;;;;;;21.30;51.50;;;;;;5037539;28;20049;-75
2022/06/13 07:59:15;;;;;;;;;;;21.30;51.50;;;;;;5038158;28;19929;-73
2022/06/13 08:01:42;;;;;;;;;;;21.30;51.50;;;;;;5041912;28;20017;-76
2022/06/13 08:04:08;;;;;;;;;;;21.30;51.60;;;;;;5043923;28;19929;-75
2022/06/13 08:06:38;;;;;;;;;;;21.30;51.40;;;;;;5042545;28;19936;-73
2022/06/13 08:09:06;;;;;;;;;;;21.30;51.30;;;;;;5042015;28;19929;-73
2022/06/13 08:11:34;;;;;;;;;;;21.30;51.50;;;;;;5041872;28;19933;-74
2022/06/13 08:14:01;;;;;;;;;;;21.40;51.50;;;;;;5044947;28;19936;-75
2022/06/13 08:16:28;;;;;;;;;;;21.40;51.20;;;;;;5043298;28;19936;-73
2022/06/13 08:18:55;;;;;;;;;;;21.40;51.30;;;;;;5045052;28;19940;-76
2022/06/13 08:21:23;;;;;;;;;;;21.40;51.40;;;;;;5044881;28;19975;-74
2022/06/13 08:23:49;;;;;;;;;;;21.40;51.30;;;;;;5041927;28;19936;-73
2022/06/13 08:26:18;;;;;;;;;;;21.40;51.20;;;;;;5044180;28;19951;-73
2022/06/13 08:28:45;;;;;;;;;;;21.40;51.10;;;;;;5045903;28;19929;-74
2022/06/13 08:31:12;;;;;;;;;;;21.50;51.00;;;;;;5039987;28;19940;-73
2022/06/13 08:33:39;;;;;;;;;;;21.50;50.90;;;;;;5043963;28;19929;-74
2022/06/13 08:36:06;;;;;;;;;;;21.50;51.00;;;;;;5043881;28;19935;-73
2022/06/13 08:38:33;;;;;;;;;;;21.50;51.00;;;;;;5044278;28;19933;-73
2022/06/13 08:41:05;;;;;;;;;;;21.50;50.70;;;;;;5043106;28;19929;-72
2022/06/13 08:43:56;;;;;;;;;;;21.60;50.40;;;;;;5041079;28;19940;-73
2022/06/13 08:46:26;;;;;;;;;;;21.60;50.50;;;;;;5026233;28;20258;-73
2022/06/13 08:48:57;;;;;;;;;;;21.50;50.60;;;;;;5040150;28;20850;-73
2022/06/13 08:51:29;;;;;;;;;;;21.60;50.70;;;;;;5044644;28;20395;-73
2022/06/13 08:53:57;;;;;;;;;;;21.60;50.70;;;;;;5046026;28;19935;-76
2022/06/13 08:56:28;;;;;;;;;;;21.70;50.70;;;;;;5041765;28;19929;-73
2022/06/13 08:58:57;;;;;;;;;;;21.60;50.70;;;;;;5044939;28;20009;-76
2022/06/13 09:01:29;;;;;;;;;;;21.70;50.70;;;;;;5046735;28;19929;-72
2022/06/13 09:04:02;;;;;;;;;;;21.70;50.60;;;;;;5047989;28;19936;-76
2022/06/13 09:06:34;;;;;;;;;;;21.70;50.50;;;;;;5047464;28;19928;-75
2022/06/13 09:09:05;;;;;;;;;;;21.80;50.50;;;;;;5044871;28;19935;-74
2022/06/13 09:11:35;;;;;;;;;;;21.80;50.10;;;;;;5044331;28;19929;-72
2022/06/13 09:14:07;;;;;;;;;;;21.70;49.30;;;;;;5044531;28;19929;-74
2022/06/13 09:16:36;;;;;;;;;;;21.80;49.60;;;;;;5042916;28;19933;-74
2022/06/13 09:19:08;;;;;;;;;;;21.80;49.40;;;;;;5044098;28;20301;-75
2022/06/13 09:21:38;;;;;;;;;;;21.80;49.30;;;;;;5045139;28;19936;-73
2022/06/13 09:24:09;;;;;;;;;;;21.90;49.50;;;;;;5043564;28;19929;-74
2022/06/13 09:26:39;;;;;;;;;;;21.90;49.40;;;;;;5043128;28;19929;-74
2022/06/13 09:29:09;;;;;;;;;;;22.00;49.20;;;;;;5045820;28;19932;-74
2022/06/13 09:31:41;;;;;;;;;;;22.00;48.90;;;;;;5039520;28;19932;-73
2022/06/13 09:34:10;;;;;;;;;;;22.00;48.40;;;;;;5044973;28;20035;-73
2022/06/13 09:36:40;;;;;;;;;;;22.10;48.30;;;;;;5046420;28;20430;-73
2022/06/13 09:39:07;;;;;;;;;;;22.10;48.40;;;;;;5046381;28;19921;-73
2022/06/13 09:41:49;;;;;;;;;;;22.10;48.10;;;;;;5044627;28;19990;-74
2022/06/13 09:44:20;;;;;;;;;;;22.20;47.50;;;;;;5031624;28;20496;-73
2022/06/13 09:46:50;;;;;;;;;;;22.20;47.60;;;;;;5043741;28;19939;-75
2022/06/13 09:49:19;;;;;;;;;;;22.30;47.50;;;;;;5043255;28;20156;-75
2022/06/13 09:51:52;;;;;;;;;;;22.30;47.40;;;;;;5046498;28;20292;-74
2022/06/13 09:54:22;;;;;;;;;;;22.30;47.20;;;;;;5046905;28;19932;-75
2022/06/13 09:56:58;;;;;;;;;;;22.30;47.40;;;;;;5042415;28;19929;-74
2022/06/13 09:59:33;;;;;;;;;;;22.40;47.10;;;;;;5045917;28;19935;-77
2022/06/13 10:02:05;;;;;;;;;;;22.50;47.10;;;;;;5044149;28;19932;-74
2022/06/13 10:04:34;;;;;;;;;;;22.50;47.00;;;;;;5047021;28;19932;-74
2022/06/13 10:07:04;;;;;;;;;;;22.60;47.20;;;;;;5044708;28;19929;-75
2022/06/13 10:09:36;;;;;;;;;;;22.70;46.90;;;;;;5043842;28;19943;-75
2022/06/13 10:12:06;;;;;;;;;;;22.70;46.90;;;;;;5040507;28;19929;-76
2022/06/13 10:14:47;;;;;;;;;;;22.80;46.10;;;;;;5047461;28;19936;-75
2022/06/13 10:17:21;;;;;;;;;;;22.80;46.10;;;;;;5044990;28;19998;-74
2022/06/13 10:19:54;;;;;;;;;;;22.90;45.80;;;;;;5042720;28;19936;-74
2022/06/13 10:22:24;;;;;;;;;;;23.00;45.80;;;;;;5046452;28;19925;-76
2022/06/13 10:24:58;;;;;;;;;;;23.00;45.50;;;;;;5045560;28;19929;-77
2022/06/13 10:27:31;;;;;;;;;;;23.10;45.50;;;;;;5045921;28;19928;-76
2022/06/13 10:30:13;;;;;;;;;;;23.10;45.60;;;;;;5044308;28;19976;-74
2022/06/13 10:32:46;;;;;;;;;;;23.20;46.00;;;;;;5030048;28;19940;-75
2022/06/13 10:35:19;;;;;;;;;;;23.20;45.90;;;;;;5044339;28;20356;-73
2022/06/13 10:37:52;;;;;;;;;;;23.30;46.40;;;;;;5040189;28;19925;-75
2022/06/13 10:40:19;;;;;;;;;;;23.30;48.00;;;;;;5045696;28;20389;-76
2022/06/13 10:42:46;;;;;;;;;;;23.40;47.30;;;;;;5044397;28;19925;-73
2022/06/13 10:45:15;;;;;;;;;;;23.40;46.40;;;;;;5040562;28;19933;-74
2022/06/13 10:47:46;;;;;;;;;;;23.40;46.30;;;;;;5042604;28;20479;-74
2022/06/13 10:50:15;;;;;;;;;;;23.50;47.00;;;;;;5037127;28;19939;-75
2022/06/13 10:52:43;;;;;;;;;;;23.50;46.60;;;;;;5043486;28;19947;-74
2022/06/13 10:55:12;;;;;;;;;;;23.50;46.20;;;;;;5043273;28;19964;-73
2022/06/13 10:57:41;;;;;;;;;;;23.60;47.20;;;;;;5043780;28;19940;-75
2022/06/13 11:00:15;;;;;;;;;;;23.60;45.60;;;;;;5044359;28;19929;-73
2022/06/13 11:02:43;;;;;;;;;;;23.60;45.10;;;;;;5043132;28;20059;-74
2022/06/13 11:05:10;;;;;;;;;;;23.70;46.90;;;;;;5043783;28;20008;-74
2022/06/13 11:07:43;;;;;;;;;;;23.80;46.80;;;;;;5042008;28;19982;-73
2022/06/13 11:10:18;;;;;;;;;;;23.80;47.00;;;;;;5041112;28;19933;-73
2022/06/13 11:12:49;;;;;;;;;;;23.80;47.30;;;;;;5020612;28;21745;-75
2022/06/13 11:23:45;;;;;;;;;;;23.90;45.80;;;;;;5042544;28;20095;-73
2022/06/13 11:28:52;;;;;;;;;;;24.00;45.90;;;;;;5039556;28;20023;-74
2022/06/13 11:31:20;;;;;;;;;;;24.00;45.50;;;;;;5042697;28;19937;-73
2022/06/13 11:33:48;;;;;;;;;;;24.10;44.90;;;;;;5035022;28;19933;-74
2022/06/13 11:36:23;;;;;;;;;;;24.10;44.80;;;;;;5038854;28;20377;-73
2022/06/13 11:38:54;;;;;;;;;;;24.20;45.80;;;;;;5037025;28;20460;-74
2022/06/13 11:41:23;;;;;;;;;;;24.20;45.70;;;;;;5037302;28;19931;-75
2022/06/13 11:43:52;;;;;;;;;;;24.30;45.90;;;;;;5039704;28;20649;-74
2022/06/13 11:46:33;;;;;;;;;;;24.40;45.30;;;;;;5036330;28;19928;-74
2022/06/13 11:49:05;;;;;;;;;;;24.40;45.20;;;;;;5040390;28;19940;-73
2022/06/13 11:51:36;;;;;;;;;;;24.40;44.90;;;;;;5040349;28;19929;-75
2022/06/13 11:54:03;;;;;;;;;;;24.50;46.00;;;;;;5040438;28;19933;-74
2022/06/13 11:56:31;;;;;;;;;;;24.50;45.80;;;;;;5039167;28;19940;-74
2022/06/13 11:58:59;;;;;;;;;;;24.50;44.50;;;;;;5035603;28;19929;-75
2022/06/13 12:01:28;;;;;;;;;;;24.50;44.40;;;;;;5040788;28;19929;-74
2022/06/13 12:03:59;;;;;;;;;;;24.60;45.30;;;;;;5034154;28;19936;-76
2022/06/13 12:06:27;;;;;;;;;;;24.70;44.80;;;;;;5040047;28;19936;-73
2022/06/13 12:09:01;;;;;;;;;;;24.70;43.10;;;;;;5039679;28;19928;-73
2022/06/13 12:11:28;;;;;;;;;;;24.70;43.90;;;;;;5034239;28;20005;-75
2022/06/13 12:13:58;;;;;;;;;;;24.80;43.20;;;;;;5036855;28;20003;-74
2022/06/13 12:16:35;;;;;;;;;;;24.80;44.20;;;;;;5037919;28;19928;-76
2022/06/13 12:19:08;;;;;;;;;;;24.90;45.00;;;;;;5037724;28;19929;-74
2022/06/13 12:21:38;;;;;;;;;;;24.90;44.90;;;;;;5041120;28;19935;-74
2022/06/13 12:24:09;;;;;;;;;;;24.90;45.20;;;;;;5039850;28;19933;-73
2022/06/13 12:26:37;;;;;;;;;;;24.90;45.20;;;;;;5037689;28;20431;-74
2022/06/13 12:29:13;;;;;;;;;;;24.90;45.50;;;;;;5040199;28;19932;-75
2022/06/13 12:31:43;;;;;;;;;;;24.90;45.60;;;;;;5038805;28;19932;-74
2022/06/13 12:34:18;;;;;;;;;;;24.90;44.30;;;;;;5041695;28;19932;-76
2022/06/13 12:36:52;;;;;;;;;;;24.90;44.10;;;;;;5037751;28;19928;-74
2022/06/13 12:39:27;;;;;;;;;;;25.00;44.20;;;;;;5040313;28;19928;-73
2022/06/13 12:42:01;;;;;;;;;;;25.10;44.50;;;;;;5040254;28;20336;-75
2022/06/13 12:44:37;;;;;;;;;;;25.10;44.80;;;;;;5045816;28;20312;-75
2022/06/13 12:47:16;;;;;;;;;;;25.10;43.10;;;;;;5048872;28;20331;-75
2022/06/13 12:49:51;;;;;;;;;;;25.10;42.50;;;;;;5046401;28;19936;-68
2022/06/13 12:52:26;;;;;;;;;;;25.10;43.60;;;;;;5043209;28;19929;-67
2022/06/13 12:54:53;;;;;;;;;;;25.20;42.90;;;;;;5044746;28;19935;-69
2022/06/13 12:57:40;;;;;;;;;;;25.20;43.50;;;;;;5043816;28;19929;-67
2022/06/13 13:00:14;;;;;;;;;;;25.20;43.90;;;;;;5044192;28;19935;-65
2022/06/13 13:02:52;;;;;;;;;;;25.30;44.30;;;;;;5039535;28;20025;-67
2022/06/13 13:05:27;;;;;;;;;;;25.30;43.80;;;;;;5043662;28;19929;-66
2022/06/13 13:08:04;;;;;;;;;;;25.30;44.10;;;;;;5045310;28;19935;-67
2022/06/13 13:10:46;;;;;;;;;;;25.30;44.20;;;;;;5042225;28;19933;-67
2022/06/13 13:13:20;;;;;;;;;;;25.30;43.30;;;;;;5037511;28;19987;-71
2022/06/13 13:15:50;;;;;;;;;;;25.30;42.70;;;;;;5044628;28;20320;-68
2022/06/13 13:18:26;;;;;;;;;;;25.40;42.90;;;;;;5042846;28;19935;-72
2022/06/13 13:20:55;;;;;;;;;;;25.40;43.00;;;;;;5045164;28;19935;-71
2022/06/13 13:23:27;;;;;;;;;;;25.50;42.80;;;;;;5043579;28;20557;-70
2022/06/13 13:25:57;;;;;;;;;;;25.50;40.60;;;;;;5039768;28;20023;-70
2022/06/13 13:28:28;;;;;;;;;;;25.70;35.90;;;;;;5036946;28;19959;-72
2022/06/13 13:30:56;;;;;;;;;;;26.10;36.80;;;;;;5042122;28;19933;-70
2022/06/13 13:33:27;;;;;;;;;;;26.30;37.60;;;;;;5042434;28;19951;-68
2022/06/13 13:35:56;;;;;;;;;;;26.50;37.40;;;;;;5041527;28;20747;-71
2022/06/13 13:38:27;;;;;;;;;;;26.70;37.60;;;;;;5042748;28;19929;-68
2022/06/13 13:40:56;;;;;;;;;;;26.80;37.30;;;;;;5043311;28;19936;-69
2022/06/13 13:43:26;;;;;;;;;;;26.90;36.80;;;;;;5043325;28;19929;-70
2022/06/13 13:45:54;;;;;;;;;;;27.10;36.00;;;;;;5036969;28;19936;-68
2022/06/13 13:48:24;;;;;;;;;;;27.20;35.90;;;;;;5038659;28;20714;-70
2022/06/13 13:50:53;;;;;;;;;;;27.30;36.20;;;;;;5035409;28;20371;-69
2022/06/13 13:53:21;;;;;;;;;;;27.40;36.20;;;;;;5039661;28;19937;-68
2022/06/13 13:55:53;;;;;;;;;;;27.50;36.40;;;;;;5041808;28;19924;-69
2022/06/13 13:58:24;;;;;;;;;;;27.60;36.20;;;;;;5038216;28;19933;-68
2022/06/13 14:00:54;;;;;;;;;;;27.70;36.30;;;;;;5041603;28;20625;-68
2022/06/13 14:03:26;;;;;;;;;;;27.70;36.60;;;;;;5041860;28;19937;-71
2022/06/13 14:05:55;;;;;;;;;;;27.80;36.50;;;;;;5040309;28;19929;-69
2022/06/13 14:08:23;;;;;;;;;;;27.90;36.50;;;;;;5041669;28;19932;-71
2022/06/13 14:10:53;;;;;;;;;;;28.00;36.70;;;;;;5042412;28;19983;-68
2022/06/13 14:13:25;;;;;;;;;;;28.00;36.80;;;;;;5039182;28;19989;-70
2022/06/13 14:16:06;;;;;;;;;;;28.10;36.90;;;;;;5037869;28;19933;-70
2022/06/13 14:18:39;;;;;;;;;;;28.10;36.40;;;;;;5038817;28;19928;-70
2022/06/13 14:21:08;;;;;;;;;;;28.20;36.70;;;;;;5042270;28;19968;-68
2022/06/13 14:23:36;;;;;;;;;;;28.30;36.30;;;;;;5041748;28;19974;-67
2022/06/13 14:26:04;;;;;;;;;;;28.30;35.80;;;;;;5036370;28;19935;-68
2022/06/13 14:28:44;;;;;;;;;;;28.30;36.00;;;;;;5035333;28;19962;-69
2022/06/13 14:31:11;;;;;;;;;;;28.40;36.50;;;;;;5039733;28;19932;-67
2022/06/13 14:36:54;;;;;;;;;;;28.50;37.50;;;;;;5037946;28;19931;-67
2022/06/13 14:39:23;;;;;;;;;;;28.60;38.60;;;;;;5025766;28;19929;-67
2022/06/13 14:41:51;;;;;;;;;;;28.60;38.50;;;;;;5041436;28;19929;-69
2022/06/13 14:44:22;;;;;;;;;;;28.70;38.00;;;;;;5040773;28;19928;-69
2022/06/13 14:47:02;;;;;;;;;;;28.70;37.90;;;;;;5037982;28;19956;-70
2022/06/13 14:49:33;;;;;;;;;;;28.80;38.10;;;;;;5036173;28;19924;-71
2022/06/13 14:52:14;;;;;;;;;;;28.80;37.90;;;;;;5041540;28;20483;-68